sensor_id;sensor_type;location;lat;lon;timestamp;P1;durP1;ratioP1;P2;durP2;ratioP2
17372;SDS011;8803;48.116;11.590;2023-07-09T00:01:13;8.68;;;6.22;;
17372;SDS011;8803;48.116;11.590;2023-07-09T00:03:18;6.72;;;6.03;;
17372;SDS011;8803;48.116;11.590;2023-07-09T00:05:22;8.68;;;5.92;;
17372;SDS011;8803;48.116;11.590;2023-07-09T00:07:27;9.20;;;5.87;;
17372;SDS011;8803;48.116;11.590;2023-07-09T00:09:32;8.05;;;6.37;;
17372;SDS011;8803;48.116;11.590;2023-07-09T00:11:36;6.90;;;6.20;;
17372;SDS011;8803;48.116;11.590;2023-07-09T00:13:51;7.00;;;5.92;;
17372;SDS011;8803;48.116;11.590;2023-07-09T00:15:55;5.87;;;5.03;;
17372;SDS011;8803;48.116;11.590;2023-07-09T00:18:01;7.30;;;6.15;;
17372;SDS011;8803;48.116;11.590;2023-07-09T00:20:06;8.28;;;6.03;;
17372;SDS011;8803;48.116;11.590;2023-07-09T00:22:22;6.00;;;5.40;;
17372;SDS011;8803;48.116;11.590;2023-07-09T00:24:28;7.15;;;5.35;;
17372;SDS011;8803;48.116;11.590;2023-07-09T00:26:32;7.42;;;5.60;;
17372;SDS011;8803;48.116;11.590;2023-07-09T00:28:37;7.62;;;5.37;;
17372;SDS011;8803;48.116;11.590;2023-07-09T00:30:53;6.72;;;5.45;;
17372;SDS011;8803;48.116;11.590;2023-07-09T00:32:57;7.08;;;6.20;;
17372;SDS011;8803;48.116;11.590;2023-07-09T00:35:02;6.87;;;5.90;;
17372;SDS011;8803;48.116;11.590;2023-07-09T00:37:10;6.12;;;5.25;;
17372;SDS011;8803;48.116;11.590;2023-07-09T00:39:15;9.35;;;6.37;;
17372;SDS011;8803;48.116;11.590;2023-07-09T00:41:20;7.20;;;5.78;;
17372;SDS011;8803;48.116;11.590;2023-07-09T00:43:25;8.80;;;5.40;;
17372;SDS011;8803;48.116;11.590;2023-07-09T00:45:32;8.03;;;5.37;;
17372;SDS011;8803;48.116;11.590;2023-07-09T00:47:48;6.55;;;5.40;;
17372;SDS011;8803;48.116;11.590;2023-07-09T00:50:00;7.12;;;5.75;;
17372;SDS011;8803;48.116;11.590;2023-07-09T00:52:19;6.20;;;5.40;;
17372;SDS011;8803;48.116;11.590;2023-07-09T00:54:26;6.70;;;5.83;;
17372;SDS011;8803;48.116;11.590;2023-07-09T00:56:43;6.55;;;5.60;;
17372;SDS011;8803;48.116;11.590;2023-07-09T00:58:50;9.45;;;5.78;;
17372;SDS011;8803;48.116;11.590;2023-07-09T01:00:58;6.22;;;5.35;;
17372;SDS011;8803;48.116;11.590;2023-07-09T01:03:03;7.05;;;6.08;;
17372;SDS011;8803;48.116;11.590;2023-07-09T01:05:09;8.43;;;5.97;;
17372;SDS011;8803;48.116;11.590;2023-07-09T01:07:13;6.15;;;5.12;;
17372;SDS011;8803;48.116;11.590;2023-07-09T01:09:20;7.70;;;5.70;;
17372;SDS011;8803;48.116;11.590;2023-07-09T01:11:24;7.42;;;5.62;;
17372;SDS011;8803;48.116;11.590;2023-07-09T01:13:28;7.67;;;5.47;;
17372;SDS011;8803;48.116;11.590;2023-07-09T01:15:35;6.20;;;5.25;;
17372;SDS011;8803;48.116;11.590;2023-07-09T01:17:39;6.53;;;5.30;;
17372;SDS011;8803;48.116;11.590;2023-07-09T01:19:48;6.58;;;5.47;;
17372;SDS011;8803;48.116;11.590;2023-07-09T01:21:53;7.55;;;5.65;;
17372;SDS011;8803;48.116;11.590;2023-07-09T01:24:10;7.17;;;5.83;;
17372;SDS011;8803;48.116;11.590;2023-07-09T01:26:27;6.80;;;5.35;;
17372;SDS011;8803;48.116;11.590;2023-07-09T01:28:32;5.90;;;5.30;;
17372;SDS011;8803;48.116;11.590;2023-07-09T01:30:36;6.20;;;5.50;;
17372;SDS011;8803;48.116;11.590;2023-07-09T01:32:42;6.85;;;5.35;;
17372;SDS011;8803;48.116;11.590;2023-07-09T01:34:47;5.97;;;5.10;;
17372;SDS011;8803;48.116;11.590;2023-07-09T01:36:53;6.95;;;5.30;;
17372;SDS011;8803;48.116;11.590;2023-07-09T01:39:09;6.55;;;5.22;;
17372;SDS011;8803;48.116;11.590;2023-07-09T01:41:13;7.30;;;5.25;;
17372;SDS011;8803;48.116;11.590;2023-07-09T01:43:16;6.22;;;5.05;;
17372;SDS011;8803;48.116;11.590;2023-07-09T01:45:31;6.65;;;5.17;;
17372;SDS011;8803;48.116;11.590;2023-07-09T01:47:36;9.60;;;5.80;;
17372;SDS011;8803;48.116;11.590;2023-07-09T01:49:40;6.92;;;5.50;;
17372;SDS011;8803;48.116;11.590;2023-07-09T01:51:46;6.17;;;5.57;;
17372;SDS011;8803;48.116;11.590;2023-07-09T01:53:51;6.37;;;5.40;;
17372;SDS011;8803;48.116;11.590;2023-07-09T01:55:55;5.20;;;4.70;;
17372;SDS011;8803;48.116;11.590;2023-07-09T01:58:10;8.85;;;5.70;;
17372;SDS011;8803;48.116;11.590;2023-07-09T02:00:15;7.00;;;5.20;;
17372;SDS011;8803;48.116;11.590;2023-07-09T02:02:19;7.62;;;5.45;;
17372;SDS011;8803;48.116;11.590;2023-07-09T02:04:24;7.33;;;5.28;;
17372;SDS011;8803;48.116;11.590;2023-07-09T02:06:28;6.12;;;4.85;;
17372;SDS011;8803;48.116;11.590;2023-07-09T02:08:33;8.00;;;5.53;;
17372;SDS011;8803;48.116;11.590;2023-07-09T02:10:37;6.33;;;5.40;;
17372;SDS011;8803;48.116;11.590;2023-07-09T02:12:41;6.65;;;5.45;;
17372;SDS011;8803;48.116;11.590;2023-07-09T02:14:55;7.53;;;5.80;;
17372;SDS011;8803;48.116;11.590;2023-07-09T02:16:59;6.80;;;6.05;;
17372;SDS011;8803;48.116;11.590;2023-07-09T02:19:03;5.95;;;5.30;;
17372;SDS011;8803;48.116;11.590;2023-07-09T02:21:08;10.68;;;5.05;;
17372;SDS011;8803;48.116;11.590;2023-07-09T02:23:12;7.43;;;5.50;;
17372;SDS011;8803;48.116;11.590;2023-07-09T02:25:15;6.42;;;5.25;;
17372;SDS011;8803;48.116;11.590;2023-07-09T02:27:19;6.25;;;5.22;;
17372;SDS011;8803;48.116;11.590;2023-07-09T02:29:34;6.58;;;5.10;;
17372;SDS011;8803;48.116;11.590;2023-07-09T02:31:38;6.27;;;5.17;;
17372;SDS011;8803;48.116;11.590;2023-07-09T02:33:42;7.70;;;5.17;;
17372;SDS011;8803;48.116;11.590;2023-07-09T02:35:56;8.18;;;5.15;;
17372;SDS011;8803;48.116;11.590;2023-07-09T02:38:00;5.87;;;5.13;;
17372;SDS011;8803;48.116;11.590;2023-07-09T02:40:05;7.87;;;5.12;;
17372;SDS011;8803;48.116;11.590;2023-07-09T02:42:10;7.50;;;5.17;;
17372;SDS011;8803;48.116;11.590;2023-07-09T02:44:16;8.20;;;5.70;;
17372;SDS011;8803;48.116;11.590;2023-07-09T02:46:20;7.37;;;5.28;;
17372;SDS011;8803;48.116;11.590;2023-07-09T02:48:24;6.42;;;5.33;;
17372;SDS011;8803;48.116;11.590;2023-07-09T02:50:39;6.87;;;4.90;;
17372;SDS011;8803;48.116;11.590;2023-07-09T02:52:43;5.78;;;4.87;;
17372;SDS011;8803;48.116;11.590;2023-07-09T02:54:47;6.35;;;5.33;;
17372;SDS011;8803;48.116;11.590;2023-07-09T02:56:51;6.28;;;5.10;;
17372;SDS011;8803;48.116;11.590;2023-07-09T02:58:54;6.60;;;5.08;;
17372;SDS011;8803;48.116;11.590;2023-07-09T03:00:58;6.90;;;5.00;;
17372;SDS011;8803;48.116;11.590;2023-07-09T03:03:02;6.50;;;5.50;;
17372;SDS011;8803;48.116;11.590;2023-07-09T03:05:18;7.12;;;4.90;;
17372;SDS011;8803;48.116;11.590;2023-07-09T03:07:21;6.08;;;5.30;;
17372;SDS011;8803;48.116;11.590;2023-07-09T03:09:25;5.55;;;4.97;;
17372;SDS011;8803;48.116;11.590;2023-07-09T03:11:40;6.45;;;5.00;;
17372;SDS011;8803;48.116;11.590;2023-07-09T03:13:44;5.42;;;4.67;;
17372;SDS011;8803;48.116;11.590;2023-07-09T03:15:54;6.55;;;4.78;;
17372;SDS011;8803;48.116;11.590;2023-07-09T03:17:58;7.53;;;5.25;;
17372;SDS011;8803;48.116;11.590;2023-07-09T03:20:02;6.07;;;5.20;;
17372;SDS011;8803;48.116;11.590;2023-07-09T03:22:08;6.78;;;4.87;;
17372;SDS011;8803;48.116;11.590;2023-07-09T03:24:12;6.92;;;4.90;;
17372;SDS011;8803;48.116;11.590;2023-07-09T03:26:18;6.95;;;5.20;;
17372;SDS011;8803;48.116;11.590;2023-07-09T03:28:22;6.00;;;5.40;;
17372;SDS011;8803;48.116;11.590;2023-07-09T03:30:26;5.15;;;4.65;;
17372;SDS011;8803;48.116;11.590;2023-07-09T03:32:42;5.87;;;4.62;;
17372;SDS011;8803;48.116;11.590;2023-07-09T03:34:46;5.60;;;5.00;;
17372;SDS011;8803;48.116;11.590;2023-07-09T03:36:50;6.45;;;5.40;;
17372;SDS011;8803;48.116;11.590;2023-07-09T03:38:54;6.17;;;5.22;;
17372;SDS011;8803;48.116;11.590;2023-07-09T03:40:57;7.97;;;4.97;;
17372;SDS011;8803;48.116;11.590;2023-07-09T03:43:01;5.55;;;4.95;;
17372;SDS011;8803;48.116;11.590;2023-07-09T03:45:06;6.25;;;4.70;;
17372;SDS011;8803;48.116;11.590;2023-07-09T03:47:10;5.72;;;4.70;;
17372;SDS011;8803;48.116;11.590;2023-07-09T03:49:14;5.60;;;4.90;;
17372;SDS011;8803;48.116;11.590;2023-07-09T03:51:18;6.33;;;5.13;;
17372;SDS011;8803;48.116;11.590;2023-07-09T03:53:21;6.80;;;5.30;;
17372;SDS011;8803;48.116;11.590;2023-07-09T03:55:25;6.77;;;4.77;;
17372;SDS011;8803;48.116;11.590;2023-07-09T03:57:40;7.65;;;4.80;;
17372;SDS011;8803;48.116;11.590;2023-07-09T03:59:44;6.22;;;4.62;;
17372;SDS011;8803;48.116;11.590;2023-07-09T04:01:48;6.10;;;5.17;;
17372;SDS011;8803;48.116;11.590;2023-07-09T04:04:02;5.95;;;4.60;;
17372;SDS011;8803;48.116;11.590;2023-07-09T04:06:06;6.45;;;4.72;;
17372;SDS011;8803;48.116;11.590;2023-07-09T04:08:10;5.45;;;4.60;;
17372;SDS011;8803;48.116;11.590;2023-07-09T04:10:14;7.60;;;5.10;;
17372;SDS011;8803;48.116;11.590;2023-07-09T04:12:17;6.07;;;5.00;;
17372;SDS011;8803;48.116;11.590;2023-07-09T04:14:21;5.43;;;4.50;;
17372;SDS011;8803;48.116;11.590;2023-07-09T04:16:25;6.42;;;4.97;;
17372;SDS011;8803;48.116;11.590;2023-07-09T04:18:29;5.97;;;5.10;;
17372;SDS011;8803;48.116;11.590;2023-07-09T04:20:33;6.72;;;5.10;;
17372;SDS011;8803;48.116;11.590;2023-07-09T04:22:37;6.90;;;5.22;;
17372;SDS011;8803;48.116;11.590;2023-07-09T04:24:41;6.17;;;4.83;;
17372;SDS011;8803;48.116;11.590;2023-07-09T04:26:45;6.20;;;5.37;;
17372;SDS011;8803;48.116;11.590;2023-07-09T04:28:49;6.97;;;4.87;;
17372;SDS011;8803;48.116;11.590;2023-07-09T04:30:52;5.05;;;4.42;;
17372;SDS011;8803;48.116;11.590;2023-07-09T04:32:57;6.40;;;5.03;;
17372;SDS011;8803;48.116;11.590;2023-07-09T04:35:00;5.22;;;4.67;;
17372;SDS011;8803;48.116;11.590;2023-07-09T04:37:06;5.80;;;4.50;;
17372;SDS011;8803;48.116;11.590;2023-07-09T04:39:12;6.33;;;4.65;;
17372;SDS011;8803;48.116;11.590;2023-07-09T04:41:16;5.17;;;4.65;;
17372;SDS011;8803;48.116;11.590;2023-07-09T04:43:20;6.08;;;4.22;;
17372;SDS011;8803;48.116;11.590;2023-07-09T04:45:24;5.00;;;4.50;;
17372;SDS011;8803;48.116;11.590;2023-07-09T04:47:28;7.08;;;5.00;;
17372;SDS011;8803;48.116;11.590;2023-07-09T04:49:31;8.48;;;4.45;;
17372;SDS011;8803;48.116;11.590;2023-07-09T04:51:36;5.25;;;4.37;;
17372;SDS011;8803;48.116;11.590;2023-07-09T04:53:40;5.70;;;4.72;;
17372;SDS011;8803;48.116;11.590;2023-07-09T04:55:55;5.28;;;4.67;;
17372;SDS011;8803;48.116;11.590;2023-07-09T04:57:58;5.40;;;4.90;;
17372;SDS011;8803;48.116;11.590;2023-07-09T05:00:03;5.03;;;4.42;;
17372;SDS011;8803;48.116;11.590;2023-07-09T05:02:08;5.05;;;4.28;;
17372;SDS011;8803;48.116;11.590;2023-07-09T05:04:12;6.10;;;4.83;;
17372;SDS011;8803;48.116;11.590;2023-07-09T05:06:16;4.30;;;3.90;;
17372;SDS011;8803;48.116;11.590;2023-07-09T05:10:40;5.58;;;4.67;;
17372;SDS011;8803;48.116;11.590;2023-07-09T05:12:48;7.42;;;4.65;;
17372;SDS011;8803;48.116;11.590;2023-07-09T05:14:53;5.35;;;4.60;;
17372;SDS011;8803;48.116;11.590;2023-07-09T05:16:58;5.58;;;4.35;;
17372;SDS011;8803;48.116;11.590;2023-07-09T05:19:02;5.47;;;4.78;;
17372;SDS011;8803;48.116;11.590;2023-07-09T05:21:08;4.83;;;4.25;;
17372;SDS011;8803;48.116;11.590;2023-07-09T05:23:12;5.60;;;4.40;;
17372;SDS011;8803;48.116;11.590;2023-07-09T05:25:15;4.65;;;4.22;;
17372;SDS011;8803;48.116;11.590;2023-07-09T05:27:30;5.10;;;4.00;;
17372;SDS011;8803;48.116;11.590;2023-07-09T05:29:34;4.53;;;4.12;;
17372;SDS011;8803;48.116;11.590;2023-07-09T05:31:37;5.78;;;4.25;;
17372;SDS011;8803;48.116;11.590;2023-07-09T05:33:42;6.72;;;4.25;;
17372;SDS011;8803;48.116;11.590;2023-07-09T05:35:47;4.72;;;4.08;;
17372;SDS011;8803;48.116;11.590;2023-07-09T05:37:50;4.85;;;3.92;;
17372;SDS011;8803;48.116;11.590;2023-07-09T05:39:54;4.65;;;4.10;;
17372;SDS011;8803;48.116;11.590;2023-07-09T05:41:58;4.58;;;3.98;;
17372;SDS011;8803;48.116;11.590;2023-07-09T05:44:02;4.53;;;3.95;;
17372;SDS011;8803;48.116;11.590;2023-07-09T05:46:18;4.95;;;4.45;;
17372;SDS011;8803;48.116;11.590;2023-07-09T05:48:23;5.80;;;4.50;;
17372;SDS011;8803;48.116;11.590;2023-07-09T05:50:27;4.40;;;4.00;;
17372;SDS011;8803;48.116;11.590;2023-07-09T05:52:31;5.05;;;4.42;;
17372;SDS011;8803;48.116;11.590;2023-07-09T05:54:34;4.62;;;4.03;;
17372;SDS011;8803;48.116;11.590;2023-07-09T05:56:38;5.08;;;3.95;;
17372;SDS011;8803;48.116;11.590;2023-07-09T05:58:42;6.08;;;4.33;;
17372;SDS011;8803;48.116;11.590;2023-07-09T06:00:46;4.30;;;3.85;;
17372;SDS011;8803;48.116;11.590;2023-07-09T06:02:54;5.05;;;3.85;;
17372;SDS011;8803;48.116;11.590;2023-07-09T06:04:58;4.60;;;3.72;;
17372;SDS011;8803;48.116;11.590;2023-07-09T06:07:03;4.35;;;3.77;;
17372;SDS011;8803;48.116;11.590;2023-07-09T06:09:18;4.10;;;3.70;;
17372;SDS011;8803;48.116;11.590;2023-07-09T06:11:22;5.83;;;4.08;;
17372;SDS011;8803;48.116;11.590;2023-07-09T06:13:26;4.10;;;3.70;;
17372;SDS011;8803;48.116;11.590;2023-07-09T06:15:41;5.25;;;3.75;;
17372;SDS011;8803;48.116;11.590;2023-07-09T06:17:45;5.12;;;4.03;;
17372;SDS011;8803;48.116;11.590;2023-07-09T06:19:48;5.53;;;3.85;;
17372;SDS011;8803;48.116;11.590;2023-07-09T06:21:52;4.10;;;3.70;;
17372;SDS011;8803;48.116;11.590;2023-07-09T06:23:57;4.40;;;3.95;;
17372;SDS011;8803;48.116;11.590;2023-07-09T06:26:00;4.65;;;4.05;;
17372;SDS011;8803;48.116;11.590;2023-07-09T06:28:04;4.83;;;3.90;;
17372;SDS011;8803;48.116;11.590;2023-07-09T06:30:08;4.12;;;3.62;;
17372;SDS011;8803;48.116;11.590;2023-07-09T06:32:13;5.08;;;4.10;;
17372;SDS011;8803;48.116;11.590;2023-07-09T06:34:17;4.62;;;4.20;;
17372;SDS011;8803;48.116;11.590;2023-07-09T06:36:20;5.60;;;4.55;;
17372;SDS011;8803;48.116;11.590;2023-07-09T06:38:24;4.50;;;3.72;;
17372;SDS011;8803;48.116;11.590;2023-07-09T06:40:30;5.22;;;4.37;;
17372;SDS011;8803;48.116;11.590;2023-07-09T06:42:33;4.20;;;3.83;;
17372;SDS011;8803;48.116;11.590;2023-07-09T06:44:37;6.55;;;3.80;;
17372;SDS011;8803;48.116;11.590;2023-07-09T06:46:41;6.08;;;4.00;;
17372;SDS011;8803;48.116;11.590;2023-07-09T06:48:47;3.62;;;3.33;;
17372;SDS011;8803;48.116;11.590;2023-07-09T06:50:51;4.00;;;3.62;;
17372;SDS011;8803;48.116;11.590;2023-07-09T06:52:56;4.80;;;3.52;;
17372;SDS011;8803;48.116;11.590;2023-07-09T06:54:59;3.90;;;3.50;;
17372;SDS011;8803;48.116;11.590;2023-07-09T06:57:15;4.05;;;3.67;;
17372;SDS011;8803;48.116;11.590;2023-07-09T06:59:19;4.08;;;3.60;;
17372;SDS011;8803;48.116;11.590;2023-07-09T07:01:22;4.00;;;3.37;;
17372;SDS011;8803;48.116;11.590;2023-07-09T07:03:26;5.55;;;3.58;;
17372;SDS011;8803;48.116;11.590;2023-07-09T07:05:30;6.37;;;3.75;;
17372;SDS011;8803;48.116;11.590;2023-07-09T07:07:34;4.22;;;3.83;;
17372;SDS011;8803;48.116;11.590;2023-07-09T07:09:37;5.42;;;4.25;;
17372;SDS011;8803;48.116;11.590;2023-07-09T07:11:41;4.83;;;3.80;;
17372;SDS011;8803;48.116;11.590;2023-07-09T07:13:45;5.58;;;4.30;;
17372;SDS011;8803;48.116;11.590;2023-07-09T07:15:50;4.45;;;3.70;;
17372;SDS011;8803;48.116;11.590;2023-07-09T07:17:54;5.47;;;3.60;;
17372;SDS011;8803;48.116;11.590;2023-07-09T07:19:58;4.30;;;3.90;;
17372;SDS011;8803;48.116;11.590;2023-07-09T07:22:13;5.08;;;4.45;;
17372;SDS011;8803;48.116;11.590;2023-07-09T07:24:17;4.95;;;4.35;;
17372;SDS011;8803;48.116;11.590;2023-07-09T07:26:21;4.10;;;3.70;;
17372;SDS011;8803;48.116;11.590;2023-07-09T07:28:35;3.75;;;3.45;;
17372;SDS011;8803;48.116;11.590;2023-07-09T07:30:39;5.65;;;3.98;;
17372;SDS011;8803;48.116;11.590;2023-07-09T07:32:44;4.87;;;3.70;;
17372;SDS011;8803;48.116;11.590;2023-07-09T07:34:50;4.10;;;3.70;;
17372;SDS011;8803;48.116;11.590;2023-07-09T07:36:55;6.92;;;3.85;;
17372;SDS011;8803;48.116;11.590;2023-07-09T07:38:59;4.42;;;4.03;;
17372;SDS011;8803;48.116;11.590;2023-07-09T07:41:03;4.87;;;4.00;;
17372;SDS011;8803;48.116;11.590;2023-07-09T07:43:21;4.30;;;3.90;;
17372;SDS011;8803;48.116;11.590;2023-07-09T07:45:24;4.85;;;4.30;;
17372;SDS011;8803;48.116;11.590;2023-07-09T07:47:42;5.60;;;4.50;;
17372;SDS011;8803;48.116;11.590;2023-07-09T07:49:46;3.83;;;3.52;;
17372;SDS011;8803;48.116;11.590;2023-07-09T07:51:50;3.92;;;3.58;;
17372;SDS011;8803;48.116;11.590;2023-07-09T07:53:56;6.10;;;4.70;;
17372;SDS011;8803;48.116;11.590;2023-07-09T07:55:59;6.47;;;4.70;;
17372;SDS011;8803;48.116;11.590;2023-07-09T07:58:04;5.28;;;4.78;;
17372;SDS011;8803;48.116;11.590;2023-07-09T08:00:09;7.42;;;5.40;;
17372;SDS011;8803;48.116;11.590;2023-07-09T08:02:14;6.20;;;4.37;;
17372;SDS011;8803;48.116;11.590;2023-07-09T08:04:18;4.65;;;4.22;;
17372;SDS011;8803;48.116;11.590;2023-07-09T08:06:22;6.03;;;4.55;;
17372;SDS011;8803;48.116;11.590;2023-07-09T08:08:26;4.90;;;4.50;;
17372;SDS011;8803;48.116;11.590;2023-07-09T08:10:41;4.80;;;4.30;;
17372;SDS011;8803;48.116;11.590;2023-07-09T08:12:45;5.95;;;5.37;;
17372;SDS011;8803;48.116;11.590;2023-07-09T08:14:49;4.85;;;3.87;;
17372;SDS011;8803;48.116;11.590;2023-07-09T08:16:53;7.58;;;4.50;;
17372;SDS011;8803;48.116;11.590;2023-07-09T08:18:57;5.12;;;4.62;;
17372;SDS011;8803;48.116;11.590;2023-07-09T08:21:00;5.30;;;4.53;;
17372;SDS011;8803;48.116;11.590;2023-07-09T08:23:05;4.78;;;4.28;;
17372;SDS011;8803;48.116;11.590;2023-07-09T08:25:24;6.08;;;5.03;;
17372;SDS011;8803;48.116;11.590;2023-07-09T08:27:28;5.40;;;4.58;;
17372;SDS011;8803;48.116;11.590;2023-07-09T08:29:32;6.08;;;4.60;;
17372;SDS011;8803;48.116;11.590;2023-07-09T08:31:36;7.95;;;4.62;;
17372;SDS011;8803;48.116;11.590;2023-07-09T08:33:41;5.35;;;4.20;;
17372;SDS011;8803;48.116;11.590;2023-07-09T08:35:45;4.75;;;3.92;;
17372;SDS011;8803;48.116;11.590;2023-07-09T08:37:50;5.55;;;4.60;;
17372;SDS011;8803;48.116;11.590;2023-07-09T08:39:54;5.10;;;4.40;;
17372;SDS011;8803;48.116;11.590;2023-07-09T08:41:59;6.87;;;4.70;;
17372;SDS011;8803;48.116;11.590;2023-07-09T08:44:11;6.87;;;4.50;;
17372;SDS011;8803;48.116;11.590;2023-07-09T08:46:30;5.33;;;4.17;;
17372;SDS011;8803;48.116;11.590;2023-07-09T08:48:38;6.92;;;5.08;;
17372;SDS011;8803;48.116;11.590;2023-07-09T08:50:45;5.33;;;4.30;;
17372;SDS011;8803;48.116;11.590;2023-07-09T08:53:00;5.15;;;4.30;;
17372;SDS011;8803;48.116;11.590;2023-07-09T08:55:09;4.95;;;4.35;;
17372;SDS011;8803;48.116;11.590;2023-07-09T08:57:19;4.87;;;4.37;;
17372;SDS011;8803;48.116;11.590;2023-07-09T08:59:33;5.37;;;4.17;;
17372;SDS011;8803;48.116;11.590;2023-07-09T09:01:40;5.40;;;4.50;;
17372;SDS011;8803;48.116;11.590;2023-07-09T09:03:57;5.17;;;4.40;;
17372;SDS011;8803;48.116;11.590;2023-07-09T09:06:02;4.08;;;3.70;;
17372;SDS011;8803;48.116;11.590;2023-07-09T09:08:10;4.42;;;3.58;;
17372;SDS011;8803;48.116;11.590;2023-07-09T09:10:29;6.03;;;4.47;;
17372;SDS011;8803;48.116;11.590;2023-07-09T09:12:36;5.65;;;4.22;;
17372;SDS011;8803;48.116;11.590;2023-07-09T09:14:42;4.35;;;3.85;;
17372;SDS011;8803;48.116;11.590;2023-07-09T09:16:48;8.58;;;4.85;;
17372;SDS011;8803;48.116;11.590;2023-07-09T09:18:55;8.95;;;4.78;;
17372;SDS011;8803;48.116;11.590;2023-07-09T09:21:03;4.40;;;4.00;;
17372;SDS011;8803;48.116;11.590;2023-07-09T09:23:22;4.25;;;3.85;;
17372;SDS011;8803;48.116;11.590;2023-07-09T09:25:30;14.50;;;12.40;;
17372;SDS011;8803;48.116;11.590;2023-07-09T09:27:35;16.60;;;11.83;;
17372;SDS011;8803;48.116;11.590;2023-07-09T09:29:39;14.60;;;10.45;;
17372;SDS011;8803;48.116;11.590;2023-07-09T09:31:54;4.00;;;3.60;;
17372;SDS011;8803;48.116;11.590;2023-07-09T09:34:00;4.60;;;3.90;;
17372;SDS011;8803;48.116;11.590;2023-07-09T09:36:04;6.17;;;4.08;;
17372;SDS011;8803;48.116;11.590;2023-07-09T09:38:11;6.03;;;3.80;;
17372;SDS011;8803;48.116;11.590;2023-07-09T09:40:17;3.87;;;3.40;;
17372;SDS011;8803;48.116;11.590;2023-07-09T09:42:23;3.92;;;3.52;;
17372;SDS011;8803;48.116;11.590;2023-07-09T09:44:28;7.22;;;4.03;;
17372;SDS011;8803;48.116;11.590;2023-07-09T09:46:32;7.17;;;3.92;;
17372;SDS011;8803;48.116;11.590;2023-07-09T09:48:52;6.00;;;3.60;;
17372;SDS011;8803;48.116;11.590;2023-07-09T09:50:57;4.33;;;3.90;;
17372;SDS011;8803;48.116;11.590;2023-07-09T09:53:06;5.55;;;3.52;;
17372;SDS011;8803;48.116;11.590;2023-07-09T09:55:24;6.30;;;3.87;;
17372;SDS011;8803;48.116;11.590;2023-07-09T09:57:31;4.28;;;3.72;;
17372;SDS011;8803;48.116;11.590;2023-07-09T09:59:36;5.70;;;4.30;;
17372;SDS011;8803;48.116;11.590;2023-07-09T10:01:40;5.78;;;3.90;;
17372;SDS011;8803;48.116;11.590;2023-07-09T10:03:46;4.05;;;3.40;;
17372;SDS011;8803;48.116;11.590;2023-07-09T10:05:57;8.75;;;4.83;;
17372;SDS011;8803;48.116;11.590;2023-07-09T10:07:59;6.30;;;3.90;;
17372;SDS011;8803;48.116;11.590;2023-07-09T10:10:09;3.92;;;3.52;;
17372;SDS011;8803;48.116;11.590;2023-07-09T10:12:32;4.80;;;3.50;;
17372;SDS011;8803;48.116;11.590;2023-07-09T10:16:59;5.70;;;3.45;;
17372;SDS011;8803;48.116;11.590;2023-07-09T10:19:09;4.20;;;3.75;;
17372;SDS011;8803;48.116;11.590;2023-07-09T10:21:25;5.72;;;3.77;;
17372;SDS011;8803;48.116;11.590;2023-07-09T10:23:34;4.62;;;3.65;;
17372;SDS011;8803;48.116;11.590;2023-07-09T10:25:41;5.92;;;4.58;;
17372;SDS011;8803;48.116;11.590;2023-07-09T10:27:59;4.45;;;3.80;;
17372;SDS011;8803;48.116;11.590;2023-07-09T10:30:17;5.08;;;4.25;;
17372;SDS011;8803;48.116;11.590;2023-07-09T10:32:27;5.30;;;3.83;;
17372;SDS011;8803;48.116;11.590;2023-07-09T10:34:37;4.60;;;3.90;;
17372;SDS011;8803;48.116;11.590;2023-07-09T10:37:00;5.40;;;4.45;;
17372;SDS011;8803;48.116;11.590;2023-07-09T10:39:10;6.80;;;4.60;;
17372;SDS011;8803;48.116;11.590;2023-07-09T10:41:25;4.67;;;3.60;;
17372;SDS011;8803;48.116;11.590;2023-07-09T10:43:33;4.42;;;3.92;;
17372;SDS011;8803;48.116;11.590;2023-07-09T10:45:39;7.08;;;3.83;;
17372;SDS011;8803;48.116;11.590;2023-07-09T10:47:46;5.42;;;3.90;;
17372;SDS011;8803;48.116;11.590;2023-07-09T10:49:51;4.55;;;4.05;;
17372;SDS011;8803;48.116;11.590;2023-07-09T10:52:00;4.45;;;3.80;;
17372;SDS011;8803;48.116;11.590;2023-07-09T10:54:15;5.22;;;3.72;;
17372;SDS011;8803;48.116;11.590;2023-07-09T10:56:23;4.95;;;3.90;;
17372;SDS011;8803;48.116;11.590;2023-07-09T10:58:31;9.23;;;4.35;;
17372;SDS011;8803;48.116;11.590;2023-07-09T11:00:38;5.42;;;4.70;;
17372;SDS011;8803;48.116;11.590;2023-07-09T11:02:42;8.13;;;4.15;;
17372;SDS011;8803;48.116;11.590;2023-07-09T11:04:49;6.70;;;4.53;;
17372;SDS011;8803;48.116;11.590;2023-07-09T11:07:07;7.37;;;5.25;;
17372;SDS011;8803;48.116;11.590;2023-07-09T11:09:14;5.50;;;4.15;;
17372;SDS011;8803;48.116;11.590;2023-07-09T11:11:32;5.22;;;3.87;;
17372;SDS011;8803;48.116;11.590;2023-07-09T11:13:39;4.37;;;3.95;;
17372;SDS011;8803;48.116;11.590;2023-07-09T11:15:45;5.62;;;3.87;;
17372;SDS011;8803;48.116;11.590;2023-07-09T11:17:51;4.25;;;3.77;;
17372;SDS011;8803;48.116;11.590;2023-07-09T11:19:56;5.30;;;4.00;;
17372;SDS011;8803;48.116;11.590;2023-07-09T11:22:05;4.37;;;3.98;;
17372;SDS011;8803;48.116;11.590;2023-07-09T11:24:31;5.15;;;4.22;;
17372;SDS011;8803;48.116;11.590;2023-07-09T11:26:37;4.60;;;4.08;;
17372;SDS011;8803;48.116;11.590;2023-07-09T11:28:54;4.95;;;3.80;;
17372;SDS011;8803;48.116;11.590;2023-07-09T11:31:04;5.70;;;4.12;;
17372;SDS011;8803;48.116;11.590;2023-07-09T11:33:16;5.72;;;4.05;;
17372;SDS011;8803;48.116;11.590;2023-07-09T11:35:22;4.62;;;3.67;;
17372;SDS011;8803;48.116;11.590;2023-07-09T11:37:27;4.42;;;4.03;;
17372;SDS011;8803;48.116;11.590;2023-07-09T11:39:39;5.35;;;4.15;;
17372;SDS011;8803;48.116;11.590;2023-07-09T11:41:45;6.30;;;4.75;;
17372;SDS011;8803;48.116;11.590;2023-07-09T11:43:49;5.10;;;4.15;;
17372;SDS011;8803;48.116;11.590;2023-07-09T11:46:07;6.05;;;4.67;;
17372;SDS011;8803;48.116;11.590;2023-07-09T11:48:16;5.30;;;4.33;;
17372;SDS011;8803;48.116;11.590;2023-07-09T11:50:33;6.17;;;3.90;;
17372;SDS011;8803;48.116;11.590;2023-07-09T11:52:39;6.35;;;4.22;;
17372;SDS011;8803;48.116;11.590;2023-07-09T11:54:45;5.95;;;4.22;;
17372;SDS011;8803;48.116;11.590;2023-07-09T11:56:53;4.65;;;4.22;;
17372;SDS011;8803;48.116;11.590;2023-07-09T11:58:58;6.95;;;4.12;;
17372;SDS011;8803;48.116;11.590;2023-07-09T12:01:14;4.90;;;4.40;;
17372;SDS011;8803;48.116;11.590;2023-07-09T12:05:33;4.78;;;4.08;;
17372;SDS011;8803;48.116;11.590;2023-07-09T12:07:37;4.60;;;3.83;;
17372;SDS011;8803;48.116;11.590;2023-07-09T12:09:43;7.17;;;4.50;;
17372;SDS011;8803;48.116;11.590;2023-07-09T12:12:00;5.10;;;3.80;;
17372;SDS011;8803;48.116;11.590;2023-07-09T12:14:08;4.75;;;4.10;;
17372;SDS011;8803;48.116;11.590;2023-07-09T12:16:23;4.83;;;3.85;;
17372;SDS011;8803;48.116;11.590;2023-07-09T12:18:28;5.47;;;4.50;;
17372;SDS011;8803;48.116;11.590;2023-07-09T12:20:45;5.72;;;4.28;;
17372;SDS011;8803;48.116;11.590;2023-07-09T12:22:51;5.47;;;4.22;;
17372;SDS011;8803;48.116;11.590;2023-07-09T12:24:55;4.78;;;4.28;;
17372;SDS011;8803;48.116;11.590;2023-07-09T12:27:00;6.87;;;4.05;;
17372;SDS011;8803;48.116;11.590;2023-07-09T12:29:07;4.40;;;4.00;;
17372;SDS011;8803;48.116;11.590;2023-07-09T12:31:13;5.12;;;3.90;;
17372;SDS011;8803;48.116;11.590;2023-07-09T12:33:18;5.30;;;4.25;;
17372;SDS011;8803;48.116;11.590;2023-07-09T12:35:25;5.58;;;3.85;;
17372;SDS011;8803;48.116;11.590;2023-07-09T12:37:31;4.80;;;3.67;;
17372;SDS011;8803;48.116;11.590;2023-07-09T12:39:35;7.70;;;4.92;;
17372;SDS011;8803;48.116;11.590;2023-07-09T12:41:41;4.72;;;3.92;;
17372;SDS011;8803;48.116;11.590;2023-07-09T12:43:46;6.67;;;4.45;;
17372;SDS011;8803;48.116;11.590;2023-07-09T12:45:50;6.40;;;3.98;;
17372;SDS011;8803;48.116;11.590;2023-07-09T12:47:56;7.62;;;4.55;;
17372;SDS011;8803;48.116;11.590;2023-07-09T12:50:07;4.72;;;3.95;;
17372;SDS011;8803;48.116;11.590;2023-07-09T12:52:26;4.28;;;3.83;;